Time;durP1;ratioP1;P1;durP2;ratioP2;P2;SDS_P1;SDS_P2;PMS_P1;PMS_P2;Temp;Humidity;BMP_temperature;BMP_pressure;BME280_temperature;BME280_humidity;BME280_pressure;Samples;Min_cycle;Max_cycle;Signal;HPM_P1;HPM_P2
2021/04/21 00:00:21;;;;;;;11.38;8.38;;;;;;;7.78;71.36;98757.05;1772408;79;23162;-71
2021/04/21 00:02:50;;;;;;;11.03;8.38;;;;;;;7.66;71.45;98757.02;1698412;84;21157;-71
2021/04/21 00:05:20;;;;;;;11.70;8.58;;;;;;;7.58;71.58;98761.98;1683746;85;21179;-72
2021/04/21 00:07:47;;;;;;;12.05;8.28;;;;;;;7.27;71.70;98715.58;1673894;83;21641;-71
2021/04/21 00:10:17;;;;;;;13.13;8.43;;;;;;;7.63;71.50;98763.80;1666658;85;21579;-71
2021/04/21 00:12:44;;;;;;;13.90;9.05;;;;;;;7.60;71.62;98766.67;1695602;83;21187;-71
2021/04/21 00:15:15;;;;;;;11.22;8.08;;;;;;;7.52;71.90;98765.09;1691375;83;21617;-71
2021/04/21 00:17:45;;;;;;;11.55;8.75;;;;;;;7.44;71.91;98769.57;1686193;85;21194;-71
2021/04/21 00:20:13;;;;;;;11.45;8.60;;;;;;;7.45;71.98;98773.06;1654889;84;21329;-71
2021/04/21 00:22:40;;;;;;;10.82;7.87;;;;;;;7.54;71.73;98776.33;1677029;85;21162;-71
2021/04/21 00:25:09;;;;;;;11.55;9.08;;;;;;;7.48;71.79;98779.40;1656234;83;21146;-71
2021/04/21 00:27:37;;;;;;;11.78;8.45;;;;;;;7.40;71.99;98772.56;1692458;83;21735;-72
2021/04/21 00:30:08;;;;;;;10.05;7.40;;;;;;;7.33;72.17;98778.26;1722511;82;21178;-71
2021/04/21 00:32:46;;;;;;;11.10;8.48;;;;;;;7.36;72.21;98778.52;1698907;83;21607;-71
2021/04/21 00:35:23;;;;;;;9.78;7.30;;;;;;;7.47;71.89;98779.06;1717465;82;21277;-70
2021/04/21 00:37:56;;;;;;;11.25;8.50;;;;;;;7.43;71.90;98776.27;1737986;82;21300;-70
2021/04/21 00:40:44;;;;;;;9.93;7.45;;;;;;;7.33;72.16;98777.44;1731221;82;21209;-71
2021/04/21 00:43:30;;;;;;;10.23;7.65;;;;;;;7.25;72.41;98774.50;1694663;83;21159;-72
2021/04/21 00:46:20;;;;;;;11.35;7.50;;;;;;;7.26;72.33;98774.38;1723165;82;21151;-72
2021/04/21 00:52:09;;;;;;;11.95;8.53;;;;;;;7.26;72.35;98783.59;1677215;84;21212;-72
2021/04/21 00:55:06;;;;;;;10.53;8.08;;;;;;;7.19;72.54;98783.69;1706285;83;21297;-71
2021/04/21 00:57:40;;;;;;;9.80;7.37;;;;;;;7.16;72.70;98783.89;1691445;82;21706;-71
2021/04/21 01:00:17;;;;;;;11.00;8.13;;;;;;;7.24;72.47;98782.88;1695978;82;21348;-72
2021/04/21 01:03:05;;;;;;;11.00;8.20;;;;;;;7.22;72.57;98782.14;1677604;82;21192;-71
2021/04/21 01:05:42;;;;;;;12.58;8.65;;;;;;;7.14;72.78;98788.44;1737437;82;21189;-71
2021/04/21 01:08:15;;;;;;;10.68;7.85;;;;;;;7.09;72.99;98780.04;1696663;84;21698;-73
2021/04/21 01:10:48;;;;;;;10.43;7.90;;;;;;;7.05;73.11;98786.81;1660344;84;21169;-74
2021/04/21 01:13:15;;;;;;;11.65;7.50;;;;;;;7.15;72.82;98781.74;1654525;86;21142;-73
2021/04/21 01:15:43;;;;;;;10.72;7.03;;;;;;;7.17;72.71;98780.31;1678141;84;21192;-73
2021/04/21 01:18:11;;;;;;;10.48;8.30;;;;;;;7.10;72.89;98774.66;1670611;84;22408;-73
2021/04/21 01:21:07;;;;;;;10.72;8.20;;;;;;;7.02;73.11;98784.87;1653797;84;21233;-73
2021/04/21 01:24:10;;;;;;;10.90;7.50;;;;;;;6.94;73.28;98790.67;1656901;86;21630;-72
2021/04/21 01:27:08;;;;;;;11.97;8.43;;;;;;;7.08;73.05;98780.98;1666217;84;21208;-71
2021/04/21 01:29:46;;;;;;;11.85;8.38;;;;;;;7.04;73.13;98782.98;1657643;86;21141;-71
2021/04/21 01:32:26;;;;;;;12.58;8.55;;;;;;;6.93;73.41;98783.76;1695277;82;21159;-72
2021/04/21 01:34:55;;;;;;;12.28;8.45;;;;;;;6.84;73.67;98782.62;1703323;84;21189;-72
2021/04/21 01:37:33;;;;;;;11.18;7.65;;;;;;;6.89;73.66;98788.84;1709062;82;21209;-71
2021/04/21 01:40:15;;;;;;;11.55;7.95;;;;;;;7.01;73.35;98783.22;1651744;85;21503;-71
2021/04/21 01:42:45;;;;;;;11.08;8.35;;;;;;;6.98;73.39;98793.92;1682017;82;21297;-71
2021/04/21 01:45:21;;;;;;;11.12;7.97;;;;;;;6.86;73.68;98788.59;1702942;84;21191;-71
2021/04/21 01:47:48;;;;;;;11.40;8.58;;;;;;;6.79;73.97;98787.36;1702890;84;21212;-71
2021/04/21 01:50:15;;;;;;;10.38;7.83;;;;;;;6.80;73.86;98789.50;1688099;82;21659;-72
2021/04/21 01:53:11;;;;;;;10.80;7.83;;;;;;;6.89;73.64;98795.41;1659746;84;21174;-71
2021/04/21 01:56:07;;;;;;;10.05;8.10;;;;;;;6.86;73.77;98803.52;1701381;82;21722;-71
2021/04/21 01:59:16;;;;;;;12.15;8.15;;;;;;;6.72;74.04;98793.98;1689722;84;21754;-71
2021/04/21 02:01:56;;;;;;;11.25;8.43;;;;;;;6.63;74.33;98799.39;1706060;82;21321;-71
2021/04/21 02:04:47;;;;;;;10.75;7.47;;;;;;;6.75;74.05;98799.00;1732554;83;21197;-71
2021/04/21 02:07:41;;;;;;;9.95;7.20;;;;;;;6.71;74.12;98794.46;1602736;87;21696;-70
2021/04/21 02:11:07;;;;;;;9.60;7.50;;;;;;;6.61;74.45;98789.48;1809136;77;28245;-71
2021/04/21 02:14:14;;;;;;;8.30;6.95;;;;;;;6.63;74.41;98795.45;1722689;82;21123;-71
2021/04/21 02:17:03;;;;;;;12.33;7.00;;;;;;;6.81;73.92;98800.38;1728831;82;21153;-70
2021/04/21 02:19:45;;;;;;;9.63;7.40;;;;;;;6.71;74.07;98795.78;1732074;83;21175;-71
2021/04/21 02:22:38;;;;;;;9.45;7.03;;;;;;;6.56;74.42;98791.59;1739913;82;21159;-70
2021/04/21 02:25:27;;;;;;;8.78;6.80;;;;;;;6.47;74.81;98796.14;1730127;81;21174;-70
2021/04/21 02:28:30;;;;;;;8.60;7.22;;;;;;;6.48;74.70;98796.03;1742695;82;21179;-71
2021/04/21 02:31:29;;;;;;;10.70;7.37;;;;;;;6.50;74.70;98798.09;1730957;82;21182;-71
2021/04/21 02:34:22;;;;;;;11.10;7.78;;;;;;;6.35;75.10;98805.22;1726608;82;21316;-71
2021/04/21 02:37:10;;;;;;;11.65;7.28;;;;;;;6.26;75.42;98810.28;1722821;82;21312;-71
2021/04/21 02:40:05;;;;;;;9.73;6.87;;;;;;;6.35;75.27;98809.16;1726091;83;21144;-72
2021/04/21 02:42:59;;;;;;;9.88;8.03;;;;;;;6.54;74.89;98807.92;1747232;82;21305;-72
2021/04/21 02:45:48;;;;;;;11.28;7.20;;;;;;;6.52;74.90;98814.59;1734810;81;21682;-71
2021/04/21 02:48:20;;;;;;;10.32;6.95;;;;;;;6.46;74.95;98816.78;1724681;82;21123;-70
2021/04/21 02:51:16;;;;;;;11.45;7.42;;;;;;;6.45;74.98;98816.44;1735577;82;21765;-71
2021/04/21 02:53:52;;;;;;;10.60;7.28;;;;;;;6.59;74.64;98816.81;1705976;81;21174;-71
2021/04/21 02:56:33;;;;;;;10.40;7.15;;;;;;;6.61;74.54;98822.33;1713556;82;21323;-70
2021/04/21 02:59:31;;;;;;;13.98;8.18;;;;;;;6.55;74.68;98819.63;1726037;83;21127;-71
2021/04/21 03:02:07;;;;;;;10.10;7.28;;;;;;;6.50;74.86;98827.47;1708759;83;21224;-71
2021/04/21 03:05:08;;;;;;;10.90;7.42;;;;;;;6.56;74.71;98823.11;1703384;83;21163;-71
2021/04/21 03:07:44;;;;;;;10.35;6.95;;;;;;;6.62;74.54;98826.61;1712120;83;21207;-71
2021/04/21 03:10:14;;;;;;;12.28;8.08;;;;;;;6.53;74.85;98833.81;1690358;83;21194;-72
2021/04/21 03:12:53;;;;;;;10.08;7.53;;;;;;;6.43;75.15;98830.13;1713924;83;21311;-71
2021/04/21 03:15:22;;;;;;;8.60;7.53;;;;;;;6.39;75.31;98830.36;1692979;82;21190;-71
2021/04/21 03:17:52;;;;;;;9.05;6.90;;;;;;;6.51;75.17;98835.69;1725753;83;21615;-71
2021/04/21 03:20:20;;;;;;;10.23;7.55;;;;;;;6.51;75.30;98837.00;1698276;83;21783;-71
2021/04/21 03:22:53;;;;;;;11.83;7.58;;;;;;;6.44;75.50;98847.58;1710278;82;21131;-72
2021/04/21 03:25:34;;;;;;;11.03;7.28;;;;;;;6.38;75.71;98847.50;1698191;83;21219;-71
2021/04/21 03:28:07;;;;;;;10.80;7.10;;;;;;;6.49;75.51;98848.11;1711060;82;21158;-71
2021/04/21 03:30:35;;;;;;;10.35;7.58;;;;;;;6.45;75.56;98851.89;1677401;84;21181;-71
2021/04/21 03:33:35;;;;;;;9.23;6.80;;;;;;;6.36;75.88;98846.30;1742056;82;21632;-71
2021/04/21 03:36:04;;;;;;;10.55;7.05;;;;;;;6.26;76.17;98853.12;1734919;81;21679;-70
2021/04/21 03:38:31;;;;;;;9.65;7.10;;;;;;;6.34;76.03;98853.46;1721756;82;21627;-70
2021/04/21 03:40:59;;;;;;;7.80;6.40;;;;;;;6.37;76.03;98846.67;1723415;82;21211;-71
2021/04/21 03:43:27;;;;;;;10.60;7.92;;;;;;;6.35;76.20;98860.38;1735540;82;21151;-72
2021/04/21 03:45:54;;;;;;;10.28;7.92;;;;;;;6.36;76.26;98854.66;1724048;83;21702;-72
2021/04/21 03:48:23;;;;;;;9.63;7.00;;;;;;;6.47;76.10;98856.09;1695135;83;21201;-72
2021/04/21 03:50:52;;;;;;;12.37;7.85;;;;;;;6.63;75.74;98861.13;1697904;83;21793;-72
2021/04/21 03:53:22;;;;;;;12.50;8.63;;;;;;;6.60;75.72;98862.67;1672356;84;21154;-71
2021/04/21 03:55:50;;;;;;;8.70;7.25;;;;;;;6.55;75.82;98863.45;1703473;83;21155;-71
2021/04/21 03:58:18;;;;;;;10.98;7.62;;;;;;;6.59;75.76;98861.47;1655161;84;21176;-72
2021/04/21 04:00:50;;;;;;;11.30;7.58;;;;;;;6.75;75.46;98865.19;1685019;85;21605;-72
2021/04/21 04:03:20;;;;;;;12.85;8.65;;;;;;;6.77;75.38;98865.45;1698798;84;21144;-71
2021/04/21 04:06:13;;;;;;;13.93;8.95;;;;;;;6.73;75.41;98872.70;1672770;84;21179;-71
2021/04/21 04:09:02;;;;;;;14.40;9.13;;;;;;;6.71;75.47;98877.23;1684625;85;21175;-71
2021/04/21 04:11:34;;;;;;;14.43;8.80;;;;;;;6.78;75.33;98880.27;1698000;84;21718;-72
2021/04/21 04:14:22;;;;;;;15.55;9.03;;;;;;;6.86;75.04;98875.80;1684991;85;21203;-72
2021/04/21 04:16:53;;;;;;;11.50;8.60;;;;;;;6.84;75.33;98889.52;1698276;84;21341;-71
2021/04/21 04:20:20;;;;;;;13.83;8.93;;;;;;;6.82;75.44;98886.16;1844725;76;22851;-71
2021/04/21 04:22:50;;;;;;;14.00;9.08;;;;;;;6.92;75.19;98885.90;1828119;77;21127;-71
2021/04/21 04:25:18;;;;;;;12.58;9.40;;;;;;;7.10;74.85;98890.80;1824394;77;21142;-71
2021/04/21 04:27:46;;;;;;;12.63;9.48;;;;;;;7.12;74.87;98898.95;1756750;80;21187;-72
2021/04/21 04:30:15;;;;;;;16.05;10.10;;;;;;;7.12;74.67;98894.18;1769701;80;21130;-72
2021/04/21 04:32:43;;;;;;;13.93;9.60;;;;;;;7.10;74.69;98902.63;1761521;80;21192;-72
2021/04/21 04:35:12;;;;;;;12.90;9.00;;;;;;;7.28;74.40;98896.10;1742926;80;21189;-71
2021/04/21 04:37:41;;;;;;;16.12;9.40;;;;;;;7.38;74.19;98902.39;1789626;79;21171;-71
2021/04/21 04:40:13;;;;;;;14.23;9.23;;;;;;;7.38;73.94;98903.71;1815520;79;21368;-71
2021/04/21 04:42:41;;;;;;;13.05;8.18;;;;;;;7.31;73.92;98903.77;1784189;80;21281;-72
2021/04/21 04:45:10;;;;;;;10.60;7.72;;;;;;;7.35;73.96;98908.34;1725911;81;21598;-73
2021/04/21 04:47:45;;;;;;;13.72;8.73;;;;;;;7.50;73.45;98907.73;1766514;80;21119;-72
2021/04/21 04:50:18;;;;;;;13.20;9.33;;;;;;;7.43;73.43;98903.39;1760312;80;21119;-72
2021/04/21 04:52:48;;;;;;;15.00;10.08;;;;;;;7.41;73.79;98912.34;1723744;81;21186;-72
2021/04/21 04:55:17;;;;;;;14.68;9.15;;;;;;;7.45;73.83;98906.73;1742445;81;21205;-71
2021/04/21 04:57:50;;;;;;;13.43;9.10;;;;;;;7.65;73.90;98907.12;1769731;79;21540;-73
2021/04/21 05:00:21;;;;;;;27.90;16.45;;;;;;;7.96;73.40;98907.05;1743622;81;21606;-73
2021/04/21 05:03:21;;;;;;;14.07;9.83;;;;;;;8.13;73.10;98904.52;1744248;81;21575;-73
2021/04/21 05:05:56;;;;;;;14.65;10.28;;;;;;;8.28;72.68;98904.33;1731354;81;21591;-73
2021/04/21 05:08:28;;;;;;;16.85;10.65;;;;;;;8.35;72.22;98909.02;1732932;81;21142;-74
2021/04/21 05:11:04;;;;;;;16.30;10.55;;;;;;;8.45;71.86;98912.27;1742310;80;21579;-71
2021/04/21 05:13:48;;;;;;;14.38;9.25;;;;;;;8.65;71.35;98915.59;1722241;83;21155;-70
2021/04/21 05:16:36;;;;;;;15.50;10.32;;;;;;;8.80;70.20;98921.99;1737842;81;21332;-70
2021/04/21 05:19:31;;;;;;;15.98;10.80;;;;;;;8.75;70.48;98931.56;1713837;82;21363;-71
2021/04/21 05:22:55;;;;;;;14.25;10.10;;;;;;;8.76;70.61;98929.75;1759201;80;21294;-71
2021/04/21 05:26:01;;;;;;;12.07;9.05;;;;;;;8.67;70.21;98940.05;1719779;82;21334;-72
2021/04/21 05:29:05;;;;;;;14.05;10.93;;;;;;;8.82;69.99;98938.52;1761888;80;21608;-72
2021/04/21 05:31:56;;;;;;;12.60;9.83;;;;;;;8.76;69.39;98937.20;1756142;79;21169;-73
2021/04/21 05:35:00;;;;;;;14.20;9.75;;;;;;;8.62;69.65;98946.15;1755214;81;21282;-70
2021/04/21 05:38:05;;;;;;;13.68;9.65;;;;;;;8.47;69.73;98939.39;1746460;80;21321;-70
2021/04/21 05:41:14;;;;;;;14.28;9.98;;;;;;;8.50;69.79;98940.02;1771754;79;21198;-71
2021/04/21 05:44:52;;;;;;;16.57;11.25;;;;;;;8.52;70.00;98943.84;1758303;81;21765;-71
2021/04/21 05:47:50;;;;;;;14.07;10.82;;;;;;;8.49;70.31;98946.69;1757669;79;21164;-71
2021/04/21 05:51:06;;;;;;;13.10;9.88;;;;;;;8.51;70.20;98961.92;1754635;81;21204;-71
2021/04/21 05:53:54;;;;;;;16.12;10.85;;;;;;;8.66;70.02;98954.18;1759828;79;21216;-72
2021/04/21 05:56:57;;;;;;;17.45;10.95;;;;;;;8.75;69.62;98959.73;1758162;81;21175;-71
2021/04/21 05:59:51;;;;;;;16.23;11.48;;;;;;;8.60;69.49;98961.23;1785353;79;21149;-71
2021/04/21 06:02:18;;;;;;;15.63;10.85;;;;;;;8.51;70.04;98963.23;1787143;79;21298;-70
2021/04/21 06:04:45;;;;;;;15.03;9.83;;;;;;;8.52;70.21;98967.56;1766368;79;21619;-71
2021/04/21 06:07:13;;;;;;;17.20;11.22;;;;;;;8.64;69.85;98961.35;1758471;81;21198;-72
2021/04/21 06:09:41;;;;;;;13.00;10.43;;;;;;;8.78;69.93;98970.03;1768402;79;21178;-72
2021/04/21 06:12:14;;;;;;;14.13;11.08;;;;;;;8.82;69.73;98975.43;1727499;81;21153;-71
2021/04/21 06:14:44;;;;;;;15.25;11.63;;;;;;;8.86;69.66;98976.88;1779715;79;21160;-71
2021/04/21 06:17:12;;;;;;;17.20;11.78;;;;;;;8.93;69.76;98978.09;1798835;79;21316;-71
2021/04/21 06:19:43;;;;;;;19.82;11.00;;;;;;;9.04;69.13;98973.80;1780867;79;21153;-71
2021/04/21 06:22:10;;;;;;;16.05;11.65;;;;;;;9.15;68.94;98979.09;1786040;79;21553;-73
2021/04/21 06:24:37;;;;;;;17.15;11.48;;;;;;;9.16;68.91;98986.06;1751681;80;21596;-72
2021/04/21 06:27:09;;;;;;;15.68;11.25;;;;;;;9.19;69.10;98989.77;1765136;81;21122;-71
2021/04/21 06:29:39;;;;;;;17.55;11.53;;;;;;;9.26;68.87;98987.49;1772505;81;21138;-72
2021/04/21 06:32:16;;;;;;;11.97;10.03;;;;;;;9.27;68.38;98990.03;1725272;82;21339;-72
2021/04/21 06:34:42;;;;;;;18.57;12.80;;;;;;;9.30;68.41;98984.51;1785385;79;21124;-71
2021/04/21 06:37:09;;;;;;;15.08;10.58;;;;;;;9.51;68.21;98995.67;1789756;79;21147;-72
2021/04/21 06:39:37;;;;;;;15.18;10.98;;;;;;;9.66;67.80;98991.83;1758162;81;21341;-73
2021/04/21 06:42:04;;;;;;;13.32;10.68;;;;;;;9.70;67.72;98996.88;1764744;79;21154;-72
2021/04/21 06:44:43;;;;;;;13.60;10.58;;;;;;;9.75;67.79;98986.80;1769278;79;21134;-72
2021/04/21 06:47:20;;;;;;;14.53;11.10;;;;;;;9.81;67.46;98988.95;1755007;82;21184;-72
2021/04/21 06:50:04;;;;;;;12.88;9.58;;;;;;;9.84;67.36;98984.73;1765861;79;21159;-72
2021/04/21 06:52:43;;;;;;;12.98;9.93;;;;;;;9.98;66.77;98988.43;1740378;80;21172;-71
2021/04/21 06:55:15;;;;;;;14.23;9.43;;;;;;;10.17;66.09;98979.86;1739386;80;21150;-71
2021/04/21 06:57:43;;;;;;;19.27;10.25;;;;;;;10.26;65.37;98985.38;1749917;82;21173;-71
2021/04/21 07:00:13;;;;;;;12.58;9.75;;;;;;;10.31;64.80;98989.31;1755432;81;21296;-72
2021/04/21 07:02:53;;;;;;;11.90;9.40;;;;;;;10.36;64.93;98991.62;1716988;82;21701;-75
2021/04/21 07:05:40;;;;;;;10.60;8.23;;;;;;;10.48;64.57;98993.73;1726539;81;22259;-72
2021/04/21 07:08:20;;;;;;;13.72;10.18;;;;;;;10.56;63.26;98999.25;1759530;79;21284;-73
2021/04/21 07:10:56;;;;;;;12.03;8.33;;;;;;;10.65;63.67;98999.81;1783716;79;21178;-73
2021/04/21 07:13:39;;;;;;;12.45;8.10;;;;;;;10.86;63.57;99001.63;1793205;79;21310;-73
2021/04/21 07:16:11;;;;;;;11.60;9.60;;;;;;;11.16;62.45;99005.30;1791764;79;22201;-73
2021/04/21 07:18:43;;;;;;;9.78;7.62;;;;;;;11.17;61.25;98996.39;1772225;79;21178;-74
2021/04/21 07:21:11;;;;;;;10.32;7.15;;;;;;;11.02;61.50;99007.78;1722651;79;21813;-73
2021/04/21 07:23:42;;;;;;;10.10;7.80;;;;;;;10.99;61.27;99009.38;1755568;81;21146;-73
2021/04/21 07:26:09;;;;;;;12.30;8.43;;;;;;;10.98;61.15;98999.75;1734442;82;21315;-73
2021/04/21 07:28:37;;;;;;;8.98;7.30;;;;;;;11.04;61.60;99005.03;1748854;81;21188;-74
2021/04/21 07:31:14;;;;;;;11.30;8.28;;;;;;;11.22;61.60;99009.25;1746434;82;21705;-75
2021/04/21 07:33:45;;;;;;;12.20;8.58;;;;;;;11.40;61.27;99005.51;1746626;81;21594;-75
2021/04/21 07:36:17;;;;;;;10.00;7.42;;;;;;;11.50;58.87;99010.37;1752801;82;21127;-75
2021/04/21 07:38:54;;;;;;;9.90;7.78;;;;;;;11.44;59.79;99013.53;1756895;81;21219;-75
2021/04/21 07:41:43;;;;;;;10.88;8.03;;;;;;;11.52;59.82;99028.30;1765251;80;21320;-80
2021/04/21 07:44:30;;;;;;;12.55;9.23;;;;;;;11.63;60.25;99016.77;1736015;81;21189;-86
2021/04/21 07:47:09;;;;;;;11.65;7.90;;;;;;;11.81;59.65;99020.95;1761283;80;21193;-85
2021/04/21 07:49:45;;;;;;;12.03;8.10;;;;;;;11.84;57.40;99023.34;1753407;82;21603;-83
2021/04/21 07:52:30;;;;;;;9.90;7.87;;;;;;;11.78;58.03;99021.22;1755797;81;21185;-85
2021/04/21 07:55:22;;;;;;;8.98;6.53;;;;;;;11.85;57.61;99026.32;1748184;82;21173;-80
2021/04/21 07:58:00;;;;;;;8.10;6.37;;;;;;;11.83;57.05;99029.61;1720068;82;21591;-80
2021/04/21 08:00:30;;;;;;;9.43;6.97;;;;;;;11.82;57.01;99022.62;1715037;83;21156;-80
2021/04/21 08:03:00;;;;;;;9.25;7.00;;;;;;;11.83;57.09;99022.98;1704395;83;21193;-79
2021/04/21 08:05:26;;;;;;;10.00;6.72;;;;;;;11.85;57.17;99032.94;1718229;83;21188;-79
2021/04/21 08:07:58;;;;;;;10.48;7.30;;;;;;;11.95;57.11;99020.59;1714250;82;21199;-81
2021/04/21 08:10:36;;;;;;;8.90;6.45;;;;;;;12.12;57.03;99027.55;1706916;83;21192;-81
2021/04/21 08:13:08;;;;;;;9.38;5.87;;;;;;;12.29;55.88;99026.90;1712680;82;21519;-82
2021/04/21 08:15:42;;;;;;;10.50;7.00;;;;;;;12.26;54.31;99021.03;1686939;84;21153;-78
2021/04/21 08:18:13;;;;;;;10.08;6.35;;;;;;;12.13;54.86;99031.88;1697042;82;21150;-83
2021/04/21 08:20:51;;;;;;;9.63;6.47;;;;;;;12.05;55.27;99031.73;1746707;80;21626;-82
2021/04/21 08:23:21;;;;;;;8.55;6.55;;;;;;;11.94;55.57;99032.63;1756719;80;21703;-85
2021/04/21 08:25:50;;;;;;;11.48;7.95;;;;;;;11.74;55.30;99038.33;1754586;82;21143;-87
2021/04/21 08:28:20;;;;;;;13.43;8.03;;;;;;;11.62;56.36;99037.12;1755079;81;21322;-87
2021/04/21 08:30:59;;;;;;;12.15;8.65;;;;;;;11.65;57.19;99037.34;1706837;82;21176;-84
2021/04/21 08:33:28;;;;;;;12.88;7.90;;;;;;;11.67;57.87;99038.53;1746220;82;21690;-85
2021/04/21 08:35:57;;;;;;;8.83;6.70;;;;;;;11.69;59.05;99037.89;1746510;81;21182;-86
2021/04/21 08:38:24;;;;;;;6.83;5.87;;;;;;;11.82;59.12;99038.52;1714733;83;21148;-86
2021/04/21 08:40:51;;;;;;;9.45;6.17;;;;;;;11.88;58.09;99038.00;1705982;83;21232;-89
2021/04/21 08:43:20;;;;;;;8.65;6.05;;;;;;;11.85;58.76;99042.22;1755048;82;21185;-88
2021/04/21 08:45:47;;;;;;;8.63;6.33;;;;;;;11.87;58.51;99036.81;1751709;82;21158;-82
2021/04/21 08:48:14;;;;;;;10.00;7.05;;;;;;;11.87;57.96;99034.98;1739843;81;21139;-80
2021/04/21 08:50:44;;;;;;;7.47;6.17;;;;;;;11.95;57.29;99033.84;1730099;81;21658;-79
2021/04/21 08:53:11;;;;;;;9.33;6.87;;;;;;;11.95;57.29;99033.84;1734217;82;21333;-78
2021/04/21 08:55:39;;;;;;;10.90;7.20;;;;;;;11.93;57.23;99031.80;1740609;82;21304;-86
2021/04/21 08:58:10;;;;;;;8.90;7.05;;;;;;;11.82;57.42;99030.58;1730316;81;21196;-81
2021/04/21 09:00:41;;;;;;;;;;;;;;;11.69;57.68;99039.22;1732743;82;21170;-85
2021/04/21 09:03:08;;;;;;;11.68;7.72;;;;;;;11.56;58.30;99046.92;1703471;84;20236;-85
2021/04/21 09:05:36;;;;;;;10.38;7.15;;;;;;;11.31;59.19;99046.34;1714703;83;21140;-91
2021/04/21 09:08:04;;;;;;;10.10;7.35;;;;;;;11.07;59.88;99041.30;1714638;84;21144;-83
2021/04/21 09:10:31;;;;;;;9.08;6.87;;;;;;;10.86;61.38;99053.67;1720259;81;21592;-84
2021/04/21 09:12:58;;;;;;;8.90;6.47;;;;;;;10.68;63.03;99062.64;1715639;81;21142;-81
2021/04/21 09:15:27;;;;;;;9.53;6.92;;;;;;;10.50;63.34;99059.23;1739458;82;21643;-85
2021/04/21 09:17:57;;;;;;;9.85;6.90;;;;;;;10.27;63.95;99061.89;1719029;83;21298;-85
2021/04/21 09:20:25;;;;;;;10.28;7.60;;;;;;;10.16;64.98;99067.19;1762389;80;21176;-87
2021/04/21 09:23:19;;;;;;;8.43;6.25;;;;;;;10.13;64.92;99060.84;1750447;82;21330;-86
2021/04/21 09:25:53;;;;;;;9.58;6.72;;;;;;;10.23;64.76;99052.53;1761718;80;21099;-81
2021/04/21 09:28:22;;;;;;;8.10;6.60;;;;;;;10.39;64.38;99053.97;1749799;80;21196;-81
2021/04/21 09:30:58;;;;;;;10.40;7.22;;;;;;;10.47;62.74;99053.72;1743473;80;21746;-82
2021/04/21 09:33:28;;;;;;;9.28;7.20;;;;;;;10.59;62.86;99047.90;1798234;78;21174;-80
2021/04/21 09:35:56;;;;;;;8.23;6.03;;;;;;;10.74;63.14;99037.88;1806106;79;21091;-81
2021/04/21 09:38:28;;;;;;;6.90;5.50;;;;;;;10.84;61.54;99040.58;1801491;79;21167;-80
2021/04/21 09:41:04;;;;;;;9.70;6.75;;;;;;;10.91;61.01;99051.52;1800265;78;21254;-85
2021/04/21 09:43:34;;;;;;;12.28;6.50;;;;;;;10.97;61.14;99041.26;1771717;79;21648;-86
2021/04/21 09:46:17;;;;;;;7.08;5.92;;;;;;;11.07;60.79;99048.41;1777466;80;21182;-87
2021/04/21 09:48:46;;;;;;;8.93;5.95;;;;;;;11.17;59.60;99049.32;1790248;79;21142;-89
2021/04/21 09:51:18;;;;;;;8.10;6.12;;;;;;;11.35;59.41;99052.72;1774176;80;21148;-80
2021/04/21 09:53:47;;;;;;;9.93;6.58;;;;;;;11.50;60.18;99051.91;1787667;79;21091;-88
2021/04/21 09:56:24;;;;;;;82.08;13.32;;;;;;;11.66;59.65;99047.44;1797478;79;21559;-80
2021/04/21 09:58:57;;;;;;;10.70;6.70;;;;;;;11.85;58.12;99051.48;1811158;79;21170;-83
2021/04/21 10:01:36;;;;;;;10.65;7.33;;;;;;;12.01;57.28;99050.18;1790668;79;21103;-86
2021/04/21 10:04:16;;;;;;;8.20;6.33;;;;;;;12.18;58.90;99046.89;1779175;80;21183;-85
2021/04/21 10:06:50;;;;;;;12.25;7.30;;;;;;;12.50;58.04;99052.47;1791131;79;21148;-85
2021/04/21 10:09:37;;;;;;;9.48;6.92;;;;;;;12.75;57.24;99051.61;1804820;79;21592;-88
2021/04/21 10:12:28;;;;;;;9.65;6.83;;;;;;;12.88;56.08;99050.83;1777933;79;21218;-93
2021/04/21 10:15:09;;;;;;;9.68;6.58;;;;;;;13.07;57.03;99055.78;1760164;80;21112;-89
2021/04/21 10:17:41;;;;;;;6.35;5.12;;;;;;;13.29;55.40;99058.61;1761265;79;21151;-90
2021/04/21 10:20:13;;;;;;;7.45;5.00;;;;;;;13.27;53.50;99062.75;1760692;79;21329;-89
2021/04/21 10:22:44;;;;;;;7.72;5.58;;;;;;;13.10;53.64;99055.49;1768567;79;21179;-88
2021/04/21 10:25:14;;;;;;;7.03;5.15;;;;;;;12.93;54.18;99061.85;1780053;79;21584;-83
2021/04/21 10:27:41;;;;;;;6.22;4.90;;;;;;;12.79;54.40;99067.59;1799161;79;21115;-83
2021/04/21 10:30:11;;;;;;;7.45;5.22;;;;;;;12.65;54.23;99065.32;1779705;79;21165;-84
2021/04/21 10:32:38;;;;;;;7.75;5.05;;;;;;;12.49;54.79;99071.18;1778589;79;21146;-81
2021/04/21 10:35:06;;;;;;;10.38;5.20;;;;;;;12.36;54.89;99056.35;1792565;79;21224;-76
2021/04/21 10:37:38;;;;;;;7.20;6.08;;;;;;;12.28;55.61;99059.69;1807986;79;21186;-76
2021/04/21 10:40:07;;;;;;;7.72;4.78;;;;;;;12.31;56.05;99059.07;1788872;79;21156;-77
2021/04/21 10:42:58;;;;;;;5.90;4.37;;;;;;;12.36;55.96;99064.30;1789345;80;21302;-77
2021/04/21 10:45:29;;;;;;;7.17;5.05;;;;;;;12.39;55.67;99062.72;1771499;79;21748;-74
2021/04/21 10:47:58;;;;;;;7.40;4.80;;;;;;;12.43;56.03;99060.64;1807638;79;21152;-76
2021/04/21 10:50:38;;;;;;;5.37;4.47;;;;;;;12.57;55.71;99056.73;1805400;79;21157;-76
2021/04/21 10:53:06;;;;;;;7.05;4.28;;;;;;;12.57;55.71;99056.73;1762120;79;21625;-76
2021/04/21 10:55:36;;;;;;;4.67;3.70;;;;;;;12.58;55.20;99059.73;1786444;79;21197;-76
2021/04/21 10:58:09;;;;;;;4.40;3.22;;;;;;;12.66;54.83;99056.39;1770661;79;21157;-76
2021/04/21 11:00:38;;;;;;;5.40;3.70;;;;;;;12.71;53.57;99051.04;1742876;81;21145;-74
2021/04/21 11:03:19;;;;;;;4.42;3.80;;;;;;;12.81;54.47;99056.83;1725988;82;21208;-74
2021/04/21 11:05:51;;;;;;;6.00;3.90;;;;;;;12.98;54.67;99055.28;1737111;80;21291;-74
2021/04/21 11:08:25;;;;;;;5.25;3.58;;;;;;;13.15;54.15;99042.63;1755347;80;21480;-74
2021/04/21 11:11:02;;;;;;;4.90;3.37;;;;;;;13.39;52.83;99052.00;1710831;82;21167;-74
2021/04/21 11:13:39;;;;;;;8.38;4.00;;;;;;;13.54;52.61;99054.55;1721708;82;21324;-74
2021/04/21 11:16:33;;;;;;;5.20;3.92;;;;;;;13.62;51.92;99059.61;1734175;82;21158;-74
2021/04/21 11:19:24;;;;;;;;;;;;;;;13.69;50.86;99048.75;1735763;81;21178;-77
2021/04/21 11:22:19;;;;;;;5.75;4.45;;;;;;;13.75;50.90;99046.85;1733029;82;20294;-78
2021/04/21 11:25:21;;;;;;;24.12;4.90;;;;;;;13.81;52.09;99056.05;1776820;79;21631;-73
2021/04/21 11:27:48;;;;;;;7.40;4.80;;;;;;;14.09;50.50;99040.47;1782643;80;21122;-73
2021/04/21 11:30:36;;;;;;;6.22;4.45;;;;;;;14.09;50.50;99040.47;1784357;79;21136;-74
2021/04/21 11:33:05;;;;;;;7.87;4.72;;;;;;;14.23;49.24;99047.12;1776585;80;21759;-74
2021/04/21 11:35:34;;;;;;;7.05;4.78;;;;;;;14.45;49.91;99046.36;1754507;80;21676;-75
2021/04/21 11:38:01;;;;;;;7.08;5.35;;;;;;;14.45;49.91;99046.36;1785570;79;21156;-74
2021/04/21 11:40:32;;;;;;;15.08;5.25;;;;;;;14.58;49.61;99040.16;1755200;80;21306;-74
2021/04/21 11:43:14;;;;;;;7.03;5.00;;;;;;;14.73;49.78;99043.64;1785350;79;21601;-75
2021/04/21 11:45:43;;;;;;;6.65;5.12;;;;;;;14.82;49.25;99038.77;1779490;79;21110;-75
2021/04/21 11:48:18;;;;;;;8.98;5.22;;;;;;;14.80;49.04;99039.40;1772992;79;21263;-74
2021/04/21 11:50:48;;;;;;;7.85;5.35;;;;;;;14.74;48.74;99044.84;1788631;79;21176;-75
2021/04/21 11:53:20;;;;;;;7.37;5.62;;;;;;;14.65;49.12;99034.27;1785899;80;21176;-75
2021/04/21 11:55:57;;;;;;;8.33;5.87;;;;;;;14.57;49.13;99036.33;1769807;79;21301;-75
2021/04/21 11:58:37;;;;;;;8.05;5.30;;;;;;;14.46;49.54;99037.88;1776323;79;21213;-75
2021/04/21 12:01:11;;;;;;;9.18;5.33;;;;;;;14.37;49.70;99035.14;1781362;79;21291;-74
2021/04/21 12:03:42;;;;;;;8.85;5.62;;;;;;;14.30;49.91;99042.54;1764926;79;21303;-78
2021/04/21 12:06:16;;;;;;;9.00;5.42;;;;;;;14.27;50.19;99044.97;1774569;79;21171;-75
2021/04/21 12:08:51;;;;;;;9.08;5.70;;;;;;;14.32;50.42;99039.22;1793943;79;21158;-77
2021/04/21 12:11:28;;;;;;;7.87;6.00;;;;;;;14.37;50.09;99040.45;1785118;80;21188;-76
2021/04/21 12:13:57;;;;;;;7.10;5.50;;;;;;;14.43;50.41;99044.33;1782019;79;21187;-76
2021/04/21 12:16:27;;;;;;;7.90;5.80;;;;;;;14.47;49.96;99044.36;1783797;80;21115;-74
2021/04/21 12:18:56;;;;;;;7.65;5.55;;;;;;;14.51;49.24;99035.09;1787096;79;21322;-74
2021/04/21 12:21:32;;;;;;;5.75;4.40;;;;;;;14.61;49.49;99034.20;1794485;79;21609;-73